Time;durP1;ratioP1;P1;durP2;ratioP2;P2;SDS_P1;SDS_P2;PMS_P1;PMS_P2;Temp;Humidity;BMP_temperature;BMP_pressure;BME280_temperature;BME280_humidity;BME280_pressure;Samples;Min_cycle;Max_cycle;Signal;HPM_P1;HPM_P2
2022/03/20 00:00:41;;;;;;;;;;;;;;;-1.26;48.78;97204.41;5073216;28;1036;-49
2022/03/20 00:03:09;;;;;;;;;;;;;;;-1.38;48.97;97193.31;5072929;28;957;-50
2022/03/20 00:05:38;;;;;;;;;;;;;;;-1.33;48.83;97201.06;5073152;28;1031;-50
2022/03/20 00:08:08;;;;;;;;;;;;;;;-1.45;49.45;97207.47;5072595;28;1985;-50
2022/03/20 00:10:35;;;;;;;;;;;;;;;-1.58;49.93;97206.06;5073240;28;1049;-50
2022/03/20 00:13:04;;;;;;;;;;;;;;;-1.55;48.94;97202.50;5072594;28;1005;-50
2022/03/20 00:15:30;;;;;;;;;;;;;;;-1.55;49.40;97207.75;5073076;28;995;-50
2022/03/20 00:17:56;;;;;;;;;;;;;;;-1.53;49.79;97209.44;5072814;28;1020;-50
2022/03/20 00:20:22;;;;;;;;;;;;;;;-1.67;50.73;97208.88;5072801;28;952;-50
2022/03/20 00:22:48;;;;;;;;;;;;;;;-1.67;50.03;97208.88;5072951;28;1011;-50
2022/03/20 00:25:14;;;;;;;;;;;;;;;-1.61;49.69;97207.00;5072632;28;1064;-50
2022/03/20 00:27:40;;;;;;;;;;;;;;;-1.66;50.30;97202.75;5072918;28;1988;-50
2022/03/20 00:30:07;;;;;;;;;;;;;;;-1.70;50.50;97201.13;5072760;28;1012;-50
2022/03/20 00:32:33;;;;;;;;;;;;;;;-1.70;50.06;97201.97;5072886;28;999;-50
2022/03/20 00:35:00;;;;;;;;;;;;;;;-1.74;49.93;97209.97;5072543;28;1044;-50
2022/03/20 00:37:27;;;;;;;;;;;;;;;-1.77;50.24;97201.22;5074825;28;1127;-50
2022/03/20 00:39:53;;;;;;;;;;;;;;;-1.71;49.93;97199.38;5076425;28;993;-50
2022/03/20 00:42:19;;;;;;;;;;;;;;;-1.71;50.06;97199.38;5076045;28;1093;-50
2022/03/20 00:44:45;;;;;;;;;;;;;;;-1.71;49.53;97200.22;5076513;28;1036;-50
2022/03/20 00:47:13;;;;;;;;;;;;;;;-1.63;49.30;97202.66;5076377;28;1985;-49
2022/03/20 00:49:39;;;;;;;;;;;;;;;-1.59;49.18;97199.94;5076139;28;1198;-50
2022/03/20 00:52:06;;;;;;;;;;;;;;;-1.63;49.21;97205.28;5076069;28;1202;-50
2022/03/20 00:54:33;;;;;;;;;;;;;;;-1.64;49.52;97200.97;5075939;28;1020;-50
2022/03/20 00:56:59;;;;;;;;;;;;;;;-1.69;49.12;97195.84;5076286;28;1007;-50
2022/03/20 00:59:26;;;;;;;;;;;;;;;-1.67;49.50;97201.03;5076150;28;1029;-51
2022/03/20 01:01:52;;;;;;;;;;;;;;;-1.81;49.50;97212.69;5076065;28;981;-51
2022/03/20 01:04:19;;;;;;;;;;;;;;;-1.84;50.24;97215.41;5075766;28;921;-51
2022/03/20 01:06:45;;;;;;;;;;;;;;;-2.01;51.04;97202.69;5076183;28;974;-51
2022/03/20 01:09:11;;;;;;;;;;;;;;;-2.02;50.53;97203.56;5075659;28;1914;-51
2022/03/20 01:11:38;;;;;;;;;;;;;;;-2.11;51.17;97206.38;5076098;28;988;-51
2022/03/20 01:14:05;;;;;;;;;;;;;;;-2.08;50.62;97205.47;5075596;28;949;-51
2022/03/20 01:16:31;;;;;;;;;;;;;;;-1.98;49.89;97202.59;5075845;28;1025;-51
2022/03/20 01:18:57;;;;;;;;;;;;;;;-1.95;50.20;97209.53;5075512;28;1054;-51
2022/03/20 01:21:23;;;;;;;;;;;;;;;-1.88;49.94;97192.75;5075712;28;1028;-51
2022/03/20 01:23:49;;;;;;;;;;;;;;;-2.01;50.31;97194.81;5075505;28;1829;-51
2022/03/20 01:26:15;;;;;;;;;;;;;;;-2.00;49.91;97193.91;5075770;28;1043;-51
2022/03/20 01:28:41;;;;;;;;;;;;;;;-1.94;49.65;97198.13;5075533;28;1996;-51
2022/03/20 01:31:08;;;;;;;;;;;;;;;-1.93;50.13;97205.13;5075426;28;1027;-51
2022/03/20 01:33:34;;;;;;;;;;;;;;;-1.92;49.94;97200.75;5075494;28;1184;-51
2022/03/20 01:36:00;;;;;;;;;;;;;;;-1.96;49.84;97197.31;5075524;28;1015;-51
2022/03/20 01:38:27;;;;;;;;;;;;;;;-1.91;49.78;97199.84;5075360;28;1028;-51
2022/03/20 01:40:53;;;;;;;;;;;;;;;-2.00;50.61;97201.75;5075255;28;956;-51
2022/03/20 01:43:19;;;;;;;;;;;;;;;-2.03;50.25;97198.34;5075076;28;1255;-51
2022/03/20 01:45:45;;;;;;;;;;;;;;;-2.16;50.63;97195.16;5073934;28;942;-51
2022/03/20 01:48:11;;;;;;;;;;;;;;;-2.24;50.39;97195.31;5074803;28;1906;-51
2022/03/20 01:50:39;;;;;;;;;;;;;;;-2.08;49.69;97192.38;5075244;28;1217;-51
2022/03/20 01:53:05;;;;;;;;;;;;;;;-2.14;49.94;97184.63;5075174;28;1000;-51
2022/03/20 01:55:32;;;;;;;;;;;;;;;-2.15;50.02;97181.13;5075107;28;1020;-51
2022/03/20 01:57:58;;;;;;;;;;;;;;;-2.19;49.62;97182.09;5074993;28;1937;-51
2022/03/20 02:00:26;;;;;;;;;;;;;;;-2.07;49.49;97186.22;5075329;28;1073;-51
2022/03/20 02:02:53;;;;;;;;;;;;;;;-1.97;49.19;97185.97;5074817;28;1084;-50
2022/03/20 02:05:19;;;;;;;;;;;;;;;-2.10;49.84;97181.06;5074993;28;1036;-51
2022/03/20 02:07:47;;;;;;;;;;;;;;;-2.16;50.14;97177.66;5074611;28;1902;-50
2022/03/20 02:10:13;;;;;;;;;;;;;;;-2.04;49.51;97173.91;5074785;28;996;-51
2022/03/20 02:12:40;;;;;;;;;;;;;;;-2.02;49.39;97169.47;5074712;28;1024;-51
2022/03/20 02:15:09;;;;;;;;;;;;;;;-2.03;49.76;97180.88;5074400;28;1024;-51
2022/03/20 02:17:35;;;;;;;;;;;;;;;-2.10;49.47;97176.66;5074630;28;1027;-51
2022/03/20 02:20:04;;;;;;;;;;;;;;;-2.05;50.07;97176.56;5073391;28;976;-51
2022/03/20 02:22:31;;;;;;;;;;;;;;;-2.13;49.70;97183.72;5074458;28;1040;-51
2022/03/20 02:24:57;;;;;;;;;;;;;;;-2.26;50.29;97180.50;5074454;28;1043;-51
2022/03/20 02:27:24;;;;;;;;;;;;;;;-2.29;50.32;97181.44;5074438;28;1983;-50
2022/03/20 02:29:54;;;;;;;;;;;;;;;-2.28;50.80;97180.53;5074365;28;1027;-51
2022/03/20 02:32:23;;;;;;;;;;;;;;;-2.22;50.25;97174.31;5074697;28;1893;-51
2022/03/20 02:34:50;;;;;;;;;;;;;;;-2.30;50.67;97177.09;5074234;28;979;-51
2022/03/20 02:37:20;;;;;;;;;;;;;;;-2.30;50.29;97178.84;5074186;28;1055;-51
2022/03/20 02:39:46;;;;;;;;;;;;;;;-2.33;50.59;97182.41;5074074;28;1095;-51
2022/03/20 02:42:15;;;;;;;;;;;;;;;-2.31;49.97;97182.38;5073825;28;1246;-51
2022/03/20 02:44:49;;;;;;;;;;;;;;;-2.27;49.68;97174.41;5074105;28;1084;-51
2022/03/20 02:47:23;;;;;;;;;;;;;;;-2.18;49.70;97178.59;5074089;28;1906;-51
2022/03/20 02:49:50;;;;;;;;;;;;;;;-2.24;49.90;97184.84;5074056;28;1043;-51
2022/03/20 02:52:16;;;;;;;;;;;;;;;-2.31;49.74;97187.63;5073706;28;1158;-51
2022/03/20 02:54:42;;;;;;;;;;;;;;;-2.27;50.00;97192.75;5073992;28;1023;-51
2022/03/20 02:57:08;;;;;;;;;;;;;;;-2.29;50.13;97191.94;5073693;28;999;-51
2022/03/20 02:59:34;;;;;;;;;;;;;;;-2.30;49.65;97198.06;5073531;28;1000;-51
2022/03/20 03:02:01;;;;;;;;;;;;;;;-2.23;49.91;97193.56;5073770;28;1041;-51
2022/03/20 03:04:28;;;;;;;;;;;;;;;-2.18;49.79;97197.81;5073910;28;1056;-51
2022/03/20 03:06:54;;;;;;;;;;;;;;;-2.18;49.65;97200.44;5073442;28;1072;-51
2022/03/20 03:12:05;;;;;;;;;;;;;;;-2.27;50.13;97191.91;5073482;28;1056;-51
2022/03/20 03:17:27;;;;;;;;;;;;;;;-2.32;50.61;97197.22;5073543;28;1028;-51
2022/03/20 03:19:54;;;;;;;;;;;;;;;-2.33;50.45;97199.88;5073574;28;972;-51
2022/03/20 03:22:20;;;;;;;;;;;;;;;-2.32;50.63;97199.84;5073228;28;968;-51
2022/03/20 03:24:46;;;;;;;;;;;;;;;-2.33;50.24;97194.63;5073681;28;1035;-50
2022/03/20 03:27:12;;;;;;;;;;;;;;;-2.42;50.19;97190.47;5073374;28;1906;-51
2022/03/20 03:29:38;;;;;;;;;;;;;;;-2.49;49.92;97197.56;5073573;28;1032;-51
2022/03/20 03:32:05;;;;;;;;;;;;;;;-2.47;50.39;97203.66;5073303;28;1020;-51
2022/03/20 03:37:20;;;;;;;;;;;;;;;-2.39;50.18;97199.13;5073118;28;1016;-51
2022/03/20 03:39:46;;;;;;;;;;;;;;;-2.42;50.16;97198.31;5073447;28;1055;-51
2022/03/20 03:42:12;;;;;;;;;;;;;;;-2.45;50.87;97201.00;5072919;28;1236;-51
2022/03/20 03:44:39;;;;;;;;;;;;;;;-2.45;50.82;97206.25;5073380;28;961;-51
2022/03/20 03:47:06;;;;;;;;;;;;;;;-2.45;50.23;97208.84;5073145;28;992;-51
2022/03/20 03:49:35;;;;;;;;;;;;;;;-2.47;49.72;97201.03;5073086;28;2017;-50
2022/03/20 03:52:02;;;;;;;;;;;;;;;-2.56;50.96;97199.47;5073096;28;1169;-50
2022/03/20 03:54:28;;;;;;;;;;;;;;;-2.57;50.87;97208.22;5073432;28;1008;-50
2022/03/20 03:56:54;;;;;;;;;;;;;;;-2.53;50.30;97202.94;5072898;28;1265;-51
2022/03/20 03:59:20;;;;;;;;;;;;;;;-2.57;50.34;97196.88;5073241;28;1015;-50
2022/03/20 04:01:47;;;;;;;;;;;;;;;-2.61;50.17;97190.84;5072917;28;1011;-50
2022/03/20 04:04:14;;;;;;;;;;;;;;;-2.70;50.66;97198.03;5073025;28;1030;-51
2022/03/20 04:06:41;;;;;;;;;;;;;;;-2.60;49.98;97199.56;5072763;28;1024;-51
2022/03/20 04:09:07;;;;;;;;;;;;;;;-2.48;50.39;97201.09;5073073;28;1910;-51
2022/03/20 04:11:33;;;;;;;;;;;;;;;-2.46;50.52;97201.91;5075616;28;1085;-51
2022/03/20 04:13:59;;;;;;;;;;;;;;;-2.47;50.19;97192.31;5076889;28;1055;-51
2022/03/20 04:16:25;;;;;;;;;;;;;;;-2.49;49.99;97194.97;5077018;28;1040;-50
2022/03/20 04:18:51;;;;;;;;;;;;;;;-2.56;50.50;97193.38;5076668;28;1011;-51
2022/03/20 04:21:17;;;;;;;;;;;;;;;-2.58;50.00;97190.78;5076878;28;1984;-50
2022/03/20 04:23:48;;;;;;;;;;;;;;;-2.50;50.08;97201.09;5076701;28;1070;-51
2022/03/20 04:26:17;;;;;;;;;;;;;;;-2.56;50.14;97189.00;5076816;28;1020;-51
2022/03/20 04:28:44;;;;;;;;;;;;;;;-2.44;49.38;97193.13;5076551;28;1902;-51
2022/03/20 04:31:15;;;;;;;;;;;;;;;-2.49;49.51;97199.34;5076746;28;1007;-50
2022/03/20 04:33:45;;;;;;;;;;;;;;;-2.58;49.54;97193.41;5076826;28;1027;-51
2022/03/20 04:36:11;;;;;;;;;;;;;;;-2.46;49.71;97199.28;5076779;28;1004;-50
2022/03/20 04:38:37;;;;;;;;;;;;;;;-2.49;49.21;97194.97;5076560;28;1040;-50
2022/03/20 04:41:04;;;;;;;;;;;;;;;-2.52;49.28;97196.78;5076562;28;1056;-51
2022/03/20 04:43:30;;;;;;;;;;;;;;;-2.36;48.97;97192.94;5076013;28;1227;-50
2022/03/20 04:45:56;;;;;;;;;;;;;;;-2.22;48.79;97200.50;5076265;28;1036;-50
2022/03/20 04:59:21;;;;;;;;;;;;;;;-2.50;51.58;97203.72;5076210;28;945;-50
2022/03/20 05:01:47;;;;;;;;;;;;;;;-2.57;51.74;97202.13;5076177;28;977;-50
2022/03/20 05:04:16;;;;;;;;;;;;;;;-2.42;51.46;97191.31;5075972;28;1848;-50
2022/03/20 05:06:45;;;;;;;;;;;;;;;-2.19;50.00;97182.97;5075904;28;1068;-50
2022/03/20 05:14:41;;;;;;;;;;;;;;;-1.64;48.46;97190.47;5075834;28;961;-51
2022/03/20 05:17:08;;;;;;;;;;;;;;;-1.33;47.44;97193.19;5075759;28;985;-51
2022/03/20 05:19:34;;;;;;;;;;;;;;;-1.11;46.76;97192.66;5075484;28;1096;-51
2022/03/20 05:22:01;;;;;;;;;;;;;;;-0.88;46.34;97194.66;5075292;28;1032;-51
2022/03/20 05:24:27;;;;;;;;;;;;;;;-0.89;46.49;97196.44;5075743;28;1032;-50
2022/03/20 05:26:53;;;;;;;;;;;;;;;-0.87;46.38;97206.91;5075797;28;1011;-50
2022/03/20 05:29:19;;;;;;;;;;;;;;;-0.78;46.54;97211.91;5075439;28;1898;-50
2022/03/20 05:31:46;;;;;;;;;;;;;;;-0.65;46.62;97201.91;5075541;28;996;-51
2022/03/20 05:34:12;;;;;;;;;;;;;;;-0.38;46.23;97209.94;5075261;28;968;-51
2022/03/20 05:36:38;;;;;;;;;;;;;;;-0.49;46.04;97224.25;5075705;28;1024;-51
2022/03/20 05:39:04;;;;;;;;;;;;;;;-0.32;45.02;97226.41;5075422;28;1020;-50
2022/03/20 05:41:49;;;;;;;;;;;;;;;-0.15;44.89;97222.41;5075377;28;1236;-51
2022/03/20 05:44:16;;;;;;;;;;;;;;;-0.01;44.02;97222.88;5075212;28;1025;-50
2022/03/20 05:46:44;;;;;;;;;;;;;;;0.09;43.44;97228.72;5075216;28;965;-50
2022/03/20 05:49:10;;;;;;;;;;;;;;;0.16;43.58;97225.84;5074870;28;1983;-50
2022/03/20 05:51:40;;;;;;;;;;;;;;;0.35;42.11;97222.66;5075297;28;1162;-50
2022/03/20 05:54:07;;;;;;;;;;;;;;;0.50;42.15;97223.97;5074900;28;1016;-51
2022/03/20 05:59:17;;;;;;;;;;;;;;;0.93;41.57;97223.41;5074873;28;1047;-51
2022/03/20 06:01:44;;;;;;;;;;;;;;;1.22;41.62;97234.72;5075227;28;976;-51
2022/03/20 06:04:10;;;;;;;;;;;;;;;1.50;39.96;97229.34;5074700;28;1068;-51
2022/03/20 06:06:37;;;;;;;;;;;;;;;1.81;40.17;97225.59;5075072;28;965;-51
2022/03/20 06:09:04;;;;;;;;;;;;;;;1.96;39.58;97232.09;5074586;28;1996;-51
2022/03/20 06:11:30;;;;;;;;;;;;;;;2.22;38.66;97225.84;5074791;28;1103;-51
2022/03/20 06:13:57;;;;;;;;;;;;;;;2.85;37.35;97233.03;5074250;28;1055;-51
2022/03/20 06:16:23;;;;;;;;;;;;;;;3.64;37.06;97234.06;5074693;28;1031;-51
2022/03/20 06:18:49;;;;;;;;;;;;;;;5.20;35.06;97234.72;5074327;28;1008;-51
2022/03/20 06:21:15;;;;;;;;;;;;;;;7.18;30.65;97225.81;5074774;28;1028;-51
2022/03/20 06:23:41;;;;;;;;;;;;;;;8.92;27.96;97233.81;5074526;28;972;-49
2022/03/20 06:26:08;;;;;;;;;;;;;;;11.04;25.56;97231.66;5074482;28;1015;-50
2022/03/20 06:28:35;;;;;;;;;;;;;;;13.51;23.13;97224.84;5074282;28;1910;-50
2022/03/20 06:31:01;;;;;;;;;;;;;;;15.69;20.48;97233.53;5074470;28;968;-51
2022/03/20 06:33:27;;;;;;;;;;;;;;;16.73;18.98;97233.63;5073998;28;1950;-51
2022/03/20 06:35:53;;;;;;;;;;;;;;;17.42;17.93;97232.28;5073596;28;995;-51
2022/03/20 06:38:20;;;;;;;;;;;;;;;17.37;18.28;97245.41;5074369;28;1016;-50
2022/03/20 06:40:46;;;;;;;;;;;;;;;16.75;18.09;97242.44;5073919;28;1078;-50
2022/03/20 06:43:14;;;;;;;;;;;;;;;15.11;19.28;97242.44;5073813;28;1255;-50
2022/03/20 06:45:41;;;;;;;;;;;;;;;12.95;20.75;97241.09;5074190;28;1040;-50
2022/03/20 06:48:07;;;;;;;;;;;;;;;12.30;21.60;97246.25;5074031;28;1933;-49
2022/03/20 06:50:33;;;;;;;;;;;;;;;12.42;22.41;97247.09;5073841;28;1359;-50
2022/03/20 06:53:04;;;;;;;;;;;;;;;12.69;22.40;97238.66;5073935;28;1091;-49
2022/03/20 06:55:30;;;;;;;;;;;;;;;13.36;20.91;97240.41;5073757;28;1045;-49
2022/03/20 06:57:58;;;;;;;;;;;;;;;14.02;20.69;97242.06;5074049;28;1011;-49
2022/03/20 07:00:26;;;;;;;;;;;;;;;15.10;19.62;97244.28;5073651;28;1041;-50
2022/03/20 07:02:55;;;;;;;;;;;;;;;15.70;18.76;97241.50;5073927;28;981;-49
2022/03/20 07:05:22;;;;;;;;;;;;;;;15.78;18.86;97248.91;5073640;28;1087;-49
2022/03/20 07:07:51;;;;;;;;;;;;;;;15.95;18.50;97248.22;5073553;28;1987;-50
2022/03/20 07:10:20;;;;;;;;;;;;;;;16.63;18.00;97243.63;5073512;28;972;-50
2022/03/20 07:12:46;;;;;;;;;;;;;;;18.53;15.88;97240.84;5073587;28;1156;-50
2022/03/20 07:15:12;;;;;;;;;;;;;;;19.29;17.38;97247.31;5073584;28;1044;-50
2022/03/20 07:17:39;;;;;;;;;;;;;;;19.47;16.51;97243.63;5073665;28;1065;-51
2022/03/20 07:20:09;;;;;;;;;;;;;;;21.03;15.26;97251.75;5072011;28;1036;-51
2022/03/20 07:22:35;;;;;;;;;;;;;;;21.76;14.46;97244.22;5073559;28;957;-51
2022/03/20 07:29:29;;;;;;;;;;;;;;;22.16;13.95;97264.06;5073237;28;1071;-50
2022/03/20 07:30:33;;;;;;;;;;;;;;;21.61;13.63;97250.47;5073250;28;1044;-51
2022/03/20 07:32:59;;;;;;;;;;;;;;;21.80;13.54;97248.31;5073269;28;1051;-51
2022/03/20 07:35:25;;;;;;;;;;;;;;;22.21;13.31;97250.72;5071940;28;969;-51
2022/03/20 07:37:51;;;;;;;;;;;;;;;23.34;13.13;97247.00;5073241;28;1106;-50
2022/03/20 07:40:18;;;;;;;;;;;;;;;22.95;13.43;97250.00;5073104;28;1091;-51
2022/03/20 07:42:44;;;;;;;;;;;;;;;23.09;12.99;97249.19;5072957;28;1117;-50
2022/03/20 07:45:10;;;;;;;;;;;;;;;23.11;12.11;97244.41;5072737;28;1044;-49
2022/03/20 07:47:36;;;;;;;;;;;;;;;23.17;12.45;97242.78;5072039;28;1994;-49
2022/03/20 07:50:04;;;;;;;;;;;;;;;23.34;12.44;97247.00;5073015;28;1076;-50
2022/03/20 07:52:30;;;;;;;;;;;;;;;23.92;12.19;97257.13;5073336;28;1165;-50
2022/03/20 07:54:56;;;;;;;;;;;;;;;24.13;12.22;97250.81;5073226;28;1035;-49
2022/03/20 07:57:22;;;;;;;;;;;;;;;23.59;12.10;97250.22;5073180;28;969;-50
2022/03/20 07:59:48;;;;;;;;;;;;;;;23.23;11.45;97241.19;5073182;28;985;-50
2022/03/20 08:02:14;;;;;;;;;;;;;;;23.64;12.00;97241.47;5072975;28;1106;-50
2022/03/20 08:04:40;;;;;;;;;;;;;;;23.70;11.14;97234.41;5072896;28;1071;-50
2022/03/20 08:07:06;;;;;;;;;;;;;;;23.97;11.94;97241.00;5073044;28;1024;-50
2022/03/20 08:09:32;;;;;;;;;;;;;;;25.08;11.03;97232.19;5073168;28;1989;-51
2022/03/20 08:11:58;;;;;;;;;;;;;;;24.95;11.19;97241.19;5072701;28;1132;-50
2022/03/20 08:14:25;;;;;;;;;;;;;;;24.40;11.77;97240.13;5072962;28;1082;-50
2022/03/20 08:16:51;;;;;;;;;;;;;;;24.04;11.25;97227.44;5072724;28;1028;-50
2022/03/20 08:19:19;;;;;;;;;;;;;;;23.40;12.20;97223.56;5072839;28;1072;-50
2022/03/20 08:21:47;;;;;;;;;;;;;;;22.13;11.98;97218.09;5072691;28;1178;-50
2022/03/20 08:24:14;;;;;;;;;;;;;;;21.00;12.37;97217.59;5073097;28;1016;-49
2022/03/20 08:26:40;;;;;;;;;;;;;;;18.89;14.14;97219.06;5072868;28;952;-49
2022/03/20 08:29:11;;;;;;;;;;;;;;;16.61;16.31;97213.22;5072698;28;1906;-48
2022/03/20 08:31:40;;;;;;;;;;;;;;;15.38;17.38;97201.31;5072613;28;1079;-48
2022/03/20 08:34:06;;;;;;;;;;;;;;;12.75;19.83;97202.41;5072632;28;1119;-52
2022/03/20 08:36:34;;;;;;;;;;;;;;;13.36;20.72;97208.16;5072848;28;1067;-48
2022/03/20 08:39:00;;;;;;;;;;;;;;;13.10;20.15;97196.84;5072830;28;1087;-48
2022/03/20 08:41:26;;;;;;;;;;;;;;;12.65;19.53;97191.59;5072573;28;1266;-49
2022/03/20 08:43:52;;;;;;;;;;;;;;;12.47;19.60;97188.56;5072506;28;1051;-49
2022/03/20 08:46:18;;;;;;;;;;;;;;;12.54;19.38;97187.09;5072502;28;1024;-48
2022/03/20 08:48:45;;;;;;;;;;;;;;;12.28;19.64;97187.34;5072385;28;1987;-48
2022/03/20 08:51:11;;;;;;;;;;;;;;;11.98;20.06;97182.56;5071459;28;1314;-49
2022/03/20 08:53:39;;;;;;;;;;;;;;;12.36;21.12;97181.38;5072617;28;1029;-48
2022/03/20 08:56:06;;;;;;;;;;;;;;;12.58;20.49;97164.41;5072384;28;1068;-49
2022/03/20 08:58:32;;;;;;;;;;;;;;;12.78;20.82;97162.75;5074908;28;1024;-49
2022/03/20 09:00:58;;;;;;;;;;;;;;;12.96;21.47;97156.88;5075928;28;1019;-49
2022/03/20 09:03:24;;;;;;;;;;;;;;;12.53;20.52;97147.81;5076243;28;997;-49
2022/03/20 09:05:51;;;;;;;;;;;;;;;12.23;20.93;97148.44;5076192;28;1055;-49
2022/03/20 09:08:17;;;;;;;;;;;;;;;12.01;21.51;97155.53;5076010;28;1913;-49
2022/03/20 09:10:43;;;;;;;;;;;;;;;11.69;21.83;97148.16;5076122;28;999;-49
2022/03/20 09:13:09;;;;;;;;;;;;;;;11.98;22.47;97141.50;5075591;28;964;-49
2022/03/20 09:15:35;;;;;;;;;;;;;;;10.94;23.74;97135.13;5075843;28;1028;-49
2022/03/20 09:20:46;;;;;;;;;;;;;;;11.02;23.02;97126.50;5075727;28;1052;-48
2022/03/20 09:23:12;;;;;;;;;;;;;;;10.78;23.02;97126.56;5075736;28;1660;-50
2022/03/20 09:25:39;;;;;;;;;;;;;;;10.61;22.68;97123.28;5075773;28;972;-50
2022/03/20 09:28:06;;;;;;;;;;;;;;;10.46;23.28;97111.91;5075421;28;1910;-49
2022/03/20 09:30:33;;;;;;;;;;;;;;;9.92;23.86;97099.72;5075776;28;1047;-49
2022/03/20 09:33:02;;;;;;;;;;;;;;;9.86;23.92;97110.81;5075436;28;1057;-48
2022/03/20 09:35:28;;;;;;;;;;;;;;;10.12;24.33;97108.13;5075742;28;1039;-48
2022/03/20 09:37:54;;;;;;;;;;;;;;;10.23;24.41;97105.53;5075392;28;961;-48
2022/03/20 09:43:44;;;;;;;;;;;;;;;10.75;24.24;97095.50;4714508;28;2310;-49
2022/03/20 09:46:10;;;;;;;;;;;;;;;10.74;23.40;97091.13;5075196;28;1032;-49
2022/03/20 09:48:37;;;;;;;;;;;;;;;10.86;24.18;97087.53;5074970;28;1914;-50
2022/03/20 09:51:04;;;;;;;;;;;;;;;10.46;25.19;97076.28;5075130;28;1154;-49
2022/03/20 09:53:31;;;;;;;;;;;;;;;10.19;25.25;97076.44;5074948;28;932;-50
2022/03/20 09:55:57;;;;;;;;;;;;;;;10.21;24.82;97074.53;5075078;28;1031;-50
2022/03/20 09:58:24;;;;;;;;;;;;;;;10.49;25.16;97070.69;5074878;28;1019;-50
2022/03/20 10:00:50;;;;;;;;;;;;;;;10.30;25.38;97063.13;5075057;28;957;-49
2022/03/20 10:03:17;;;;;;;;;;;;;;;10.17;24.98;97071.22;5074762;28;1047;-49
2022/03/20 10:05:43;;;;;;;;;;;;;;;10.29;24.48;97059.63;5074932;28;1028;-48
2022/03/20 10:08:16;;;;;;;;;;;;;;;10.24;24.35;97061.75;5074369;28;2005;-51
2022/03/20 10:10:43;;;;;;;;;;;;;;;10.57;26.25;97065.63;5074799;28;1075;-50
2022/03/20 10:13:13;;;;;;;;;;;;;;;10.93;24.86;97058.50;5074496;28;1022;-50
2022/03/20 10:15:40;;;;;;;;;;;;;;;11.29;24.52;97052.13;5074719;28;1130;-49
2022/03/20 10:18:10;;;;;;;;;;;;;;;11.11;24.73;97051.69;5074341;28;1028;-50
2022/03/20 10:20:38;;;;;;;;;;;;;;;11.06;24.26;97061.06;5074568;28;1027;-50
2022/03/20 10:23:05;;;;;;;;;;;;;;;10.69;24.76;97051.31;5074314;28;1016;-50
2022/03/20 10:25:31;;;;;;;;;;;;;;;10.65;24.96;97039.16;5074731;28;1011;-50
2022/03/20 10:27:58;;;;;;;;;;;;;;;10.29;25.17;97048.06;5074197;28;1972;-49
2022/03/20 10:30:24;;;;;;;;;;;;;;;10.14;25.26;97036.69;5074389;28;1040;-51
2022/03/20 10:32:51;;;;;;;;;;;;;;;9.96;24.62;97037.06;5072882;28;985;-50
2022/03/20 10:35:17;;;;;;;;;;;;;;;10.26;25.64;97035.78;5074336;28;1043;-50
2022/03/20 10:37:43;;;;;;;;;;;;;;;10.47;24.16;97028.03;5074216;28;932;-50
2022/03/20 10:40:11;;;;;;;;;;;;;;;10.64;24.19;97026.78;5074519;28;1087;-51
2022/03/20 10:42:37;;;;;;;;;;;;;;;10.66;24.17;97016.81;5073619;28;1243;-49
2022/03/20 10:45:04;;;;;;;;;;;;;;;10.44;25.24;97027.41;5074186;28;1020;-50
2022/03/20 10:47:30;;;;;;;;;;;;;;;10.14;24.30;97012.63;5073779;28;1918;-50
2022/03/20 10:50:07;;;;;;;;;;;;;;;10.21;24.87;97021.06;5074234;28;1089;-50
2022/03/20 10:52:36;;;;;;;;;;;;;;;10.71;23.48;97011.94;5073953;28;1150;-49
2022/03/20 10:55:09;;;;;;;;;;;;;;;10.91;23.08;97013.09;5073920;28;1060;-50
2022/03/20 10:57:36;;;;;;;;;;;;;;;10.85;23.75;97004.69;5073738;28;1057;-49
2022/03/20 11:00:04;;;;;;;;;;;;;;;10.88;23.44;97012.47;5073819;28;1056;-50
2022/03/20 11:02:30;;;;;;;;;;;;;;;10.73;23.20;97004.63;5073555;28;1024;-50
2022/03/20 11:04:56;;;;;;;;;;;;;;;10.52;23.88;97003.59;5073691;28;1028;-50
2022/03/20 11:07:23;;;;;;;;;;;;;;;10.46;24.06;96993.38;5073859;28;1051;-50
2022/03/20 11:09:50;;;;;;;;;;;;;;;10.15;24.05;96983.09;5073650;28;2001;-50
2022/03/20 11:12:24;;;;;;;;;;;;;;;9.96;23.77;96980.09;5073560;28;1096;-50
2022/03/20 11:14:51;;;;;;;;;;;;;;;10.02;24.38;96982.31;5073418;28;1028;-50
2022/03/20 11:17:19;;;;;;;;;;;;;;;10.16;24.48;96981.28;5073791;28;1040;-50
2022/03/20 11:19:54;;;;;;;;;;;;;;;10.24;23.87;96967.34;5073033;28;1106;-50
2022/03/20 11:22:21;;;;;;;;;;;;;;;9.97;24.32;96966.59;5073593;28;1008;-50
2022/03/20 11:24:50;;;;;;;;;;;;;;;9.82;24.66;96958.88;5073340;28;1024;-50
2022/03/20 11:27:21;;;;;;;;;;;;;;;10.00;24.59;96959.31;5073447;28;1142;-50
2022/03/20 11:29:48;;;;;;;;;;;;;;;9.87;25.08;96952.22;5073393;28;1914;-50
2022/03/20 11:32:15;;;;;;;;;;;;;;;10.07;24.93;96939.19;5073558;28;1053;-49
2022/03/20 11:34:43;;;;;;;;;;;;;;;10.09;25.21;96950.63;5073403;28;1029;-50
2022/03/20 11:37:10;;;;;;;;;;;;;;;10.03;25.28;96943.91;5073506;28;1048;-51
2022/03/20 11:39:38;;;;;;;;;;;;;;;9.99;24.67;96946.94;5073211;28;1016;-50
2022/03/20 11:42:19;;;;;;;;;;;;;;;10.01;24.06;96939.66;5072831;28;1125;-51
2022/03/20 11:45:00;;;;;;;;;;;;;;;9.82;24.69;96935.66;5073276;28;1016;-51
2022/03/20 11:47:31;;;;;;;;;;;;;;;9.88;25.10;96931.69;5073333;28;1954;-51
2022/03/20 11:50:07;;;;;;;;;;;;;;;10.07;24.35;96934.72;5072989;28;1944;-50
2022/03/20 11:52:58;;;;;;;;;;;;;;;9.94;24.39;96931.22;5073114;28;1209;-50
2022/03/20 11:55:42;;;;;;;;;;;;;;;9.93;24.59;96921.53;5070254;28;1791;-49
2022/03/20 11:58:10;;;;;;;;;;;;;;;9.63;24.60;96916.63;5073126;28;953;-49
2022/03/20 12:00:41;;;;;;;;;;;;;;;9.49;25.35;96910.47;5073003;28;1025;-50
2022/03/20 12:03:14;;;;;;;;;;;;;;;9.63;25.60;96908.59;5072977;28;964;-50
2022/03/20 12:05:43;;;;;;;;;;;;;;;9.60;25.52;96898.13;5073042;28;1019;-49
2022/03/20 12:08:15;;;;;;;;;;;;;;;9.81;25.46;96890.34;5072846;28;1910;-50
2022/03/20 12:10:59;;;;;;;;;;;;;;;9.73;24.94;96890.94;5073138;28;1019;-49
2022/03/20 12:13:44;;;;;;;;;;;;;;;9.32;24.55;96884.13;5072584;28;924;-50
2022/03/20 12:16:10;;;;;;;;;;;;;;;9.44;25.72;96883.25;5073076;28;1023;-50
2022/03/20 12:19:08;;;;;;;;;;;;;;;9.85;25.24;96874.00;5072919;28;1047;-50
2022/03/20 12:21:53;;;;;;;;;;;;;;;9.85;24.77;96871.31;5060969;28;1270;-50
2022/03/20 12:24:34;;;;;;;;;;;;;;;9.63;25.08;96866.72;5072970;28;1048;-50
2022/03/20 12:27:19;;;;;;;;;;;;;;;9.52;26.33;96872.88;5072928;28;996;-50
2022/03/20 12:29:46;;;;;;;;;;;;;;;9.52;26.13;96872.00;5072507;28;1910;-50
2022/03/20 12:32:13;;;;;;;;;;;;;;;9.54;25.08;96867.38;5073031;28;1024;-50
2022/03/20 12:34:39;;;;;;;;;;;;;;;9.67;25.81;96872.69;5076790;28;976;-50
2022/03/20 12:37:24;;;;;;;;;;;;;;;9.75;25.49;96871.16;5076739;28;1099;-50
2022/03/20 12:39:52;;;;;;;;;;;;;;;9.59;25.22;96862.56;5076320;28;1186;-50
2022/03/20 12:42:18;;;;;;;;;;;;;;;9.54;24.62;96856.72;5076237;28;1089;-50
2022/03/20 12:44:48;;;;;;;;;;;;;;;9.48;25.77;96859.84;5076158;28;1023;-49
2022/03/20 12:47:16;;;;;;;;;;;;;;;9.63;23.73;96850.69;5076692;28;1052;-50
2022/03/20 12:49:45;;;;;;;;;;;;;;;9.64;24.75;96848.91;5076202;28;1886;-50
2022/03/20 12:52:12;;;;;;;;;;;;;;;9.67;25.28;96854.00;5076421;28;1306;-50
2022/03/20 12:54:38;;;;;;;;;;;;;;;9.54;24.14;96851.38;5076222;28;1132;-50
2022/03/20 12:57:05;;;;;;;;;;;;;;;9.46;24.26;96846.59;5076136;28;971;-50
2022/03/20 12:59:31;;;;;;;;;;;;;;;9.45;24.46;96852.06;5076015;28;1072;-50
2022/03/20 13:02:03;;;;;;;;;;;;;;;9.61;24.30;96846.44;5076092;28;1021;-50
2022/03/20 13:04:29;;;;;;;;;;;;;;;9.51;24.21;96848.94;5076150;28;1061;-50
2022/03/20 13:06:55;;;;;;;;;;;;;;;9.43;24.37;96844.16;5076490;28;1000;-50
2022/03/20 13:09:21;;;;;;;;;;;;;;;9.39;23.72;96848.03;5075976;28;2000;-50
2022/03/20 13:11:56;;;;;;;;;;;;;;;9.43;24.55;96843.28;5075683;28;944;-49
2022/03/20 13:14:23;;;;;;;;;;;;;;;9.34;25.00;96840.34;5076106;28;988;-50
2022/03/20 13:16:50;;;;;;;;;;;;;;;9.46;24.34;96841.25;5075657;28;1072;-50
2022/03/20 13:19:37;;;;;;;;;;;;;;;9.46;23.83;96833.25;5075850;28;1028;-50
2022/03/20 13:22:04;;;;;;;;;;;;;;;9.33;23.89;96840.44;5075841;28;984;-50
2022/03/20 13:24:34;;;;;;;;;;;;;;;9.19;24.97;96844.13;5075715;28;1087;-58
2022/03/20 13:27:02;;;;;;;;;;;;;;;9.29;24.67;96838.97;5075544;28;1094;-50
2022/03/20 13:29:28;;;;;;;;;;;;;;;9.17;24.53;96828.22;5075696;28;1914;-49
2022/03/20 13:32:05;;;;;;;;;;;;;;;9.00;24.70;96833.94;5075539;28;1032;-50
2022/03/20 13:34:33;;;;;;;;;;;;;;;9.01;25.15;96832.97;5075649;28;1080;-49
2022/03/20 13:37:06;;;;;;;;;;;;;;;8.97;24.74;96839.47;5075242;28;1080;-50
2022/03/20 13:39:33;;;;;;;;;;;;;;;8.97;24.87;96836.81;5075702;28;1044;-50